Time;durP1;ratioP1;P1;durP2;ratioP2;P2;SDS_P1;SDS_P2;PMS_P1;PMS_P2;Temp;Humidity;BMP_temperature;BMP_pressure;BME280_temperature;BME280_humidity;BME280_pressure;Samples;Min_cycle;Max_cycle;Signal;HPM_P1;HPM_P2
2023/12/27 00:00:10;;;;;;;7.00;6.10;;;;;;;;;;5085977;28;20036;-70
2023/12/27 00:02:36;;;;;;;6.90;5.80;;;;;;;;;;5087342;28;20030;-70
2023/12/27 00:05:02;;;;;;;8.70;6.10;;;;;;;;;;5085421;28;20028;-70
2023/12/27 00:07:29;;;;;;;6.78;6.07;;;;;;;;;;5087295;28;20036;-69
2023/12/27 00:09:57;;;;;;;7.20;6.13;;;;;;;;;;5087260;28;20044;-70
2023/12/27 00:12:23;;;;;;;8.55;5.63;;;;;;;;;;5086912;28;20039;-70
2023/12/27 00:14:49;;;;;;;8.43;6.28;;;;;;;;;;5085691;28;20048;-70
2023/12/27 00:17:15;;;;;;;5.30;4.80;;;;;;;;;;5086965;28;20028;-70
2023/12/27 00:19:42;;;;;;;7.97;6.47;;;;;;;;;;5085741;28;20044;-69
2023/12/27 00:22:08;;;;;;;4.82;4.40;;;;;;;;;;5088225;28;20828;-70
2023/12/27 00:24:34;;;;;;;7.18;6.47;;;;;;;;;;5085878;28;20581;-74
2023/12/27 00:27:00;;;;;;;8.02;6.55;;;;;;;;;;5087237;28;20028;-74
2023/12/27 00:29:27;;;;;;;8.60;6.88;;;;;;;;;;5085771;28;20129;-74
2023/12/27 00:31:53;;;;;;;8.45;6.55;;;;;;;;;;5091617;28;20052;-74
2023/12/27 00:34:20;;;;;;;8.48;6.05;;;;;;;;;;5098220;28;20507;-75
2023/12/27 00:36:46;;;;;;;7.47;6.63;;;;;;;;;;5078803;28;20156;-74
2023/12/27 00:39:12;;;;;;;5.32;4.82;;;;;;;;;;5096022;28;20032;-74
2023/12/27 00:41:38;;;;;;;8.15;6.88;;;;;;;;;;5067638;28;20031;-74
2023/12/27 00:44:05;;;;;;;6.88;6.20;;;;;;;;;;5081681;28;20081;-72
2023/12/27 00:46:31;;;;;;;7.07;5.95;;;;;;;;;;5110192;28;20035;-74
2023/12/27 00:48:56;;;;;;;5.97;5.03;;;;;;;;;;5100377;28;20443;-75
2023/12/27 00:51:22;;;;;;;8.48;6.55;;;;;;;;;;5099649;28;20100;-74
2023/12/27 00:53:48;;;;;;;7.63;6.45;;;;;;;;;;5103031;28;20077;-73
2023/12/27 00:56:15;;;;;;;5.30;4.82;;;;;;;;;;5099226;28;20040;-73
2023/12/27 00:58:41;;;;;;;5.95;5.45;;;;;;;;;;5081663;28;20054;-74
2023/12/27 01:01:07;;;;;;;7.93;7.13;;;;;;;;;;5100808;28;20059;-74
2023/12/27 01:03:33;;;;;;;8.23;6.60;;;;;;;;;;5097333;28;20044;-73
2023/12/27 01:05:59;;;;;;;8.82;6.57;;;;;;;;;;5102449;28;20119;-74
2023/12/27 01:08:24;;;;;;;7.13;6.32;;;;;;;;;;5085573;28;20312;-74
2023/12/27 01:10:50;;;;;;;8.90;6.57;;;;;;;;;;5100138;28;20035;-74
2023/12/27 01:13:16;;;;;;;6.60;6.00;;;;;;;;;;5083242;28;20035;-74
2023/12/27 01:15:42;;;;;;;4.38;3.97;;;;;;;;;;5097318;28;20047;-74
2023/12/27 01:18:08;;;;;;;8.68;6.75;;;;;;;;;;5099239;28;20020;-74
2023/12/27 01:20:34;;;;;;;6.10;5.47;;;;;;;;;;5103142;28;20087;-74
2023/12/27 01:23:00;;;;;;;6.75;6.03;;;;;;;;;;5100562;28;20031;-74
2023/12/27 01:25:26;;;;;;;7.60;6.00;;;;;;;;;;5101180;28;20065;-73
2023/12/27 01:27:52;;;;;;;5.45;4.97;;;;;;;;;;5102638;28;20089;-73
2023/12/27 01:30:18;;;;;;;8.35;6.60;;;;;;;;;;5094370;28;20036;-74
2023/12/27 01:32:43;;;;;;;8.07;6.15;;;;;;;;;;5125382;27;20064;-74
2023/12/27 01:35:10;;;;;;;9.23;7.35;;;;;;;;;;5094864;27;20415;-73
2023/12/27 01:37:36;;;;;;;8.00;6.60;;;;;;;;;;5130897;27;20039;-73
2023/12/27 01:40:02;;;;;;;7.03;6.30;;;;;;;;;;5132175;27;20042;-73
2023/12/27 01:42:30;;;;;;;9.00;7.38;;;;;;;;;;5130469;27;20035;-73
2023/12/27 01:44:56;;;;;;;7.85;7.05;;;;;;;;;;5095513;27;20035;-74
2023/12/27 01:47:22;;;;;;;9.30;6.63;;;;;;;;;;5111890;27;20027;-73
2023/12/27 01:49:48;;;;;;;6.55;5.78;;;;;;;;;;5112242;27;20038;-74
2023/12/27 01:52:14;;;;;;;8.75;7.13;;;;;;;;;;5108921;27;20030;-72
2023/12/27 01:54:40;;;;;;;8.52;6.65;;;;;;;;;;5112136;27;20592;-74
2023/12/27 01:57:05;;;;;;;10.00;7.47;;;;;;;;;;5110850;27;20027;-73
2023/12/27 01:59:31;;;;;;;11.90;8.18;;;;;;;;;;5130132;27;20095;-72
2023/12/27 02:01:57;;;;;;;11.05;7.50;;;;;;;;;;5112506;27;20414;-72
2023/12/27 02:04:24;;;;;;;7.18;6.57;;;;;;;;;;5130522;27;20039;-70
2023/12/27 02:06:49;;;;;;;8.93;7.32;;;;;;;;;;5113076;27;20034;-74
2023/12/27 02:09:15;;;;;;;8.32;7.03;;;;;;;;;;5129798;27;20027;-73
2023/12/27 02:11:41;;;;;;;9.98;7.85;;;;;;;;;;5130274;27;20023;-73
2023/12/27 02:14:07;;;;;;;8.00;7.20;;;;;;;;;;5111534;27;20121;-72
2023/12/27 02:16:34;;;;;;;11.45;9.05;;;;;;;;;;5111283;27;20139;-71
2023/12/27 02:19:01;;;;;;;8.25;7.45;;;;;;;;;;5112868;27;20114;-72
2023/12/27 02:21:27;;;;;;;5.30;4.85;;;;;;;;;;5110920;27;20589;-72
2023/12/27 02:23:55;;;;;;;8.65;7.22;;;;;;;;;;5130379;27;20031;-73
2023/12/27 02:26:21;;;;;;;8.63;7.75;;;;;;;;;;5111566;27;20031;-74
2023/12/27 02:28:47;;;;;;;10.75;8.20;;;;;;;;;;5121680;27;20494;-73
2023/12/27 02:31:13;;;;;;;10.98;8.88;;;;;;;;;;5110875;27;20103;-74
2023/12/27 02:33:40;;;;;;;14.15;7.10;;;;;;;;;;5129968;27;20536;-73
2023/12/27 02:36:05;;;;;;;6.80;6.10;;;;;;;;;;5095542;27;20038;-73
2023/12/27 02:38:31;;;;;;;8.48;6.57;;;;;;;;;;5127960;27;20035;-73
2023/12/27 02:40:59;;;;;;;7.80;7.00;;;;;;;;;;5130936;27;20031;-74
2023/12/27 02:43:25;;;;;;;8.70;7.05;;;;;;;;;;5110620;27;20027;-73
2023/12/27 02:45:50;;;;;;;6.78;6.10;;;;;;;;;;5074237;28;20039;-74
2023/12/27 02:48:16;;;;;;;8.80;7.57;;;;;;;;;;5105837;27;20118;-72
2023/12/27 02:50:44;;;;;;;9.82;7.63;;;;;;;;;;5110892;27;20243;-73
2023/12/27 02:53:13;;;;;;;16.40;8.93;;;;;;;;;;5112466;27;20034;-73
2023/12/27 02:55:40;;;;;;;9.63;8.07;;;;;;;;;;5110545;27;20046;-73
2023/12/27 02:58:05;;;;;;;11.57;7.53;;;;;;;;;;5110693;27;20031;-73
2023/12/27 03:00:35;;;;;;;9.50;8.25;;;;;;;;;;5129099;27;20059;-73
2023/12/27 03:03:02;;;;;;;11.35;8.60;;;;;;;;;;5130011;27;20100;-73
2023/12/27 03:05:28;;;;;;;10.60;8.60;;;;;;;;;;5128902;27;20027;-73
2023/12/27 03:07:54;;;;;;;10.93;7.95;;;;;;;;;;5111692;27;20079;-73
2023/12/27 03:10:21;;;;;;;10.43;7.82;;;;;;;;;;5128457;27;20055;-72
2023/12/27 03:12:47;;;;;;;11.90;9.23;;;;;;;;;;5092914;27;20528;-74
2023/12/27 03:15:13;;;;;;;15.90;9.10;;;;;;;;;;5126946;27;20053;-74
2023/12/27 03:17:38;;;;;;;13.48;8.45;;;;;;;;;;5109645;27;20042;-73
2023/12/27 03:20:05;;;;;;;7.30;6.60;;;;;;;;;;5102083;27;20118;-73
2023/12/27 03:22:30;;;;;;;8.52;7.47;;;;;;;;;;5116344;27;20692;-74
2023/12/27 03:24:56;;;;;;;11.13;8.88;;;;;;;;;;5112902;27;20110;-74
2023/12/27 03:27:23;;;;;;;9.88;8.85;;;;;;;;;;5115456;27;20035;-73
2023/12/27 03:29:49;;;;;;;13.90;9.63;;;;;;;;;;5115622;27;20572;-73
2023/12/27 03:32:15;;;;;;;14.07;8.32;;;;;;;;;;5083087;27;20039;-74
2023/12/27 03:34:40;;;;;;;12.13;8.70;;;;;;;;;;5116571;27;20050;-74
2023/12/27 03:37:06;;;;;;;12.88;9.13;;;;;;;;;;5135408;27;20023;-74
2023/12/27 03:39:32;;;;;;;12.80;9.60;;;;;;;;;;5128013;27;20031;-74
2023/12/27 03:41:58;;;;;;;12.63;8.57;;;;;;;;;;5133239;27;20422;-73
2023/12/27 03:44:24;;;;;;;12.15;10.57;;;;;;;;;;5112561;27;20126;-73
2023/12/27 03:46:50;;;;;;;12.02;9.07;;;;;;;;;;5093945;27;20125;-74
2023/12/27 03:49:16;;;;;;;11.05;8.73;;;;;;;;;;5128347;27;20027;-74
2023/12/27 03:51:41;;;;;;;14.52;9.60;;;;;;;;;;5128431;27;20114;-74
2023/12/27 03:54:07;;;;;;;12.15;9.13;;;;;;;;;;5094445;28;20038;-74
2023/12/27 03:56:33;;;;;;;13.43;9.27;;;;;;;;;;5128082;27;20102;-74
2023/12/27 03:59:03;;;;;;;15.00;9.60;;;;;;;;;;5107483;27;20055;-73
2023/12/27 04:01:29;;;;;;;9.40;8.45;;;;;;;;;;5126910;27;20114;-74
2023/12/27 04:03:54;;;;;;;10.30;9.00;;;;;;;;;;5127661;27;20478;-75
2023/12/27 04:06:20;;;;;;;15.02;9.65;;;;;;;;;;5109738;27;20047;-72
2023/12/27 04:08:46;;;;;;;14.65;10.38;;;;;;;;;;5111095;27;20023;-74
2023/12/27 04:11:12;;;;;;;11.70;8.95;;;;;;;;;;5109837;28;20027;-74
2023/12/27 04:13:40;;;;;;;12.80;10.40;;;;;;;;;;5090950;27;20096;-74
2023/12/27 04:16:06;;;;;;;8.85;7.93;;;;;;;;;;5126134;27;20210;-73
2023/12/27 04:18:32;;;;;;;14.50;10.38;;;;;;;;;;5139189;27;20031;-73
2023/12/27 04:20:58;;;;;;;14.70;10.90;;;;;;;;;;5141697;27;20042;-74
2023/12/27 04:23:24;;;;;;;14.27;10.18;;;;;;;;;;5126028;27;20084;-74
2023/12/27 04:25:50;;;;;;;12.15;8.48;;;;;;;;;;5144726;27;20039;-73
2023/12/27 04:28:16;;;;;;;15.82;10.45;;;;;;;;;;5122496;27;20096;-74
2023/12/27 04:30:42;;;;;;;11.43;8.68;;;;;;;;;;5129357;27;20051;-73
2023/12/27 04:33:08;;;;;;;20.30;12.73;;;;;;;;;;5114509;27;20042;-73
2023/12/27 04:35:33;;;;;;;15.95;10.05;;;;;;;;;;5113695;27;20077;-73
2023/12/27 04:37:59;;;;;;;16.13;10.20;;;;;;;;;;5114288;27;20027;-74
2023/12/27 04:40:25;;;;;;;18.33;12.90;;;;;;;;;;5114364;27;20039;-73
2023/12/27 04:42:52;;;;;;;17.30;11.05;;;;;;;;;;5113840;27;20546;-74
2023/12/27 04:45:17;;;;;;;13.00;10.00;;;;;;;;;;5115096;27;20064;-73
2023/12/27 04:47:44;;;;;;;17.02;10.80;;;;;;;;;;5113776;27;20499;-74
2023/12/27 04:50:10;;;;;;;17.58;11.15;;;;;;;;;;5112285;27;20043;-73
2023/12/27 04:52:35;;;;;;;14.60;9.80;;;;;;;;;;5131616;27;20095;-74
2023/12/27 04:55:01;;;;;;;8.82;7.60;;;;;;;;;;5113306;27;20502;-74
2023/12/27 04:57:30;;;;;;;9.25;8.05;;;;;;;;;;5113628;27;20619;-74
2023/12/27 04:59:56;;;;;;;15.38;8.90;;;;;;;;;;5132979;27;20039;-74
2023/12/27 05:02:22;;;;;;;13.18;9.93;;;;;;;;;;5113255;27;20117;-73
2023/12/27 05:04:48;;;;;;;14.65;10.70;;;;;;;;;;5092301;28;20629;-73
2023/12/27 05:07:14;;;;;;;9.52;7.75;;;;;;;;;;5096715;27;20034;-74
2023/12/27 05:09:40;;;;;;;11.27;9.25;;;;;;;;;;5131142;27;20031;-74
2023/12/27 05:12:06;;;;;;;14.77;9.98;;;;;;;;;;5097720;27;20023;-74
2023/12/27 05:14:32;;;;;;;11.77;9.20;;;;;;;;;;5096219;27;20043;-74
2023/12/27 05:16:58;;;;;;;12.20;9.40;;;;;;;;;;5113289;27;20050;-74
2023/12/27 05:19:24;;;;;;;15.98;10.30;;;;;;;;;;5079229;27;20108;-74
2023/12/27 05:21:50;;;;;;;11.98;9.77;;;;;;;;;;5096179;27;20055;-74
2023/12/27 05:24:15;;;;;;;16.48;9.80;;;;;;;;;;5114168;27;20062;-75
2023/12/27 05:26:41;;;;;;;15.75;10.38;;;;;;;;;;5130957;27;20470;-73
2023/12/27 05:29:07;;;;;;;16.33;9.10;;;;;;;;;;5112720;27;20031;-74
2023/12/27 05:31:33;;;;;;;15.00;9.85;;;;;;;;;;5129984;27;20047;-73
2023/12/27 05:33:59;;;;;;;14.80;11.10;;;;;;;;;;5130925;27;20042;-74
2023/12/27 05:36:25;;;;;;;15.52;11.30;;;;;;;;;;5112467;27;20041;-73
2023/12/27 05:38:51;;;;;;;15.55;10.63;;;;;;;;;;5095565;27;20031;-74
2023/12/27 05:41:21;;;;;;;17.05;10.90;;;;;;;;;;5129900;27;20030;-74
2023/12/27 05:43:47;;;;;;;14.02;6.88;;;;;;;;;;5130187;27;20053;-75
2023/12/27 05:46:13;;;;;;;14.82;11.30;;;;;;;;;;5111924;27;20573;-73
2023/12/27 05:48:39;;;;;;;20.27;10.40;;;;;;;;;;5111477;27;20425;-70
2023/12/27 05:51:05;;;;;;;16.80;12.15;;;;;;;;;;5095998;27;20125;-71
2023/12/27 05:53:31;;;;;;;16.52;11.15;;;;;;;;;;5111203;27;20117;-71
2023/12/27 05:55:57;;;;;;;16.48;10.57;;;;;;;;;;5129905;27;20161;-70
2023/12/27 05:58:23;;;;;;;15.52;10.23;;;;;;;;;;5111140;27;20233;-72
2023/12/27 06:00:49;;;;;;;16.25;9.93;;;;;;;;;;5129702;27;20023;-71
2023/12/27 06:03:15;;;;;;;30.40;17.15;;;;;;;;;;5131317;27;20166;-71
2023/12/27 06:05:41;;;;;;;16.92;12.07;;;;;;;;;;5111188;27;20475;-72
2023/12/27 06:08:07;;;;;;;20.42;11.90;;;;;;;;;;5123392;27;20031;-71
2023/12/27 06:10:33;;;;;;;21.42;12.45;;;;;;;;;;5109953;27;20027;-70
2023/12/27 06:12:59;;;;;;;17.73;11.50;;;;;;;;;;5110875;27;20086;-70
2023/12/27 06:15:25;;;;;;;18.45;13.38;;;;;;;;;;5111424;27;20072;-68
2023/12/27 06:17:51;;;;;;;24.92;13.95;;;;;;;;;;5111468;27;20521;-70
2023/12/27 06:20:17;;;;;;;20.10;12.98;;;;;;;;;;5111535;27;20036;-70
2023/12/27 06:22:43;;;;;;;21.90;12.90;;;;;;;;;;5128290;27;20090;-70
2023/12/27 06:25:09;;;;;;;15.55;11.73;;;;;;;;;;5111408;27;20526;-71
2023/12/27 06:27:35;;;;;;;18.70;12.93;;;;;;;;;;5122046;27;20035;-69
2023/12/27 06:30:01;;;;;;;24.45;14.40;;;;;;;;;;5131134;27;20027;-69
2023/12/27 06:32:26;;;;;;;23.23;14.88;;;;;;;;;;5110382;27;20556;-70
2023/12/27 06:34:52;;;;;;;22.50;13.95;;;;;;;;;;5111664;27;20067;-69
2023/12/27 06:37:24;;;;;;;22.77;13.63;;;;;;;;;;5099495;28;20456;-70
2023/12/27 06:39:51;;;;;;;16.70;11.35;;;;;;;;;;5109596;27;20502;-68
2023/12/27 06:42:17;;;;;;;20.40;11.95;;;;;;;;;;5109285;27;20031;-70
2023/12/27 06:44:43;;;;;;;16.08;11.55;;;;;;;;;;5091999;27;20020;-71
2023/12/27 06:47:09;;;;;;;11.43;9.40;;;;;;;;;;5127542;27;20096;-70
2023/12/27 06:49:36;;;;;;;17.05;11.35;;;;;;;;;;5128881;27;20076;-71
2023/12/27 06:52:02;;;;;;;17.40;11.75;;;;;;;;;;5111202;27;20039;-72
2023/12/27 06:54:28;;;;;;;15.05;11.02;;;;;;;;;;5129413;27;20060;-70
2023/12/27 06:56:59;;;;;;;15.60;11.80;;;;;;;;;;5094176;27;20045;-71
2023/12/27 06:59:25;;;;;;;18.20;12.38;;;;;;;;;;5110381;27;20717;-71
2023/12/27 07:01:51;;;;;;;16.02;11.05;;;;;;;;;;5107221;27;20031;-69
2023/12/27 07:04:17;;;;;;;16.77;10.45;;;;;;;;;;5094155;27;20023;-70
2023/12/27 07:06:43;;;;;;;18.02;12.07;;;;;;;;;;5109305;27;20038;-70
2023/12/27 07:09:09;;;;;;;18.42;11.38;;;;;;;;;;5111095;27;20547;-70
2023/12/27 07:11:35;;;;;;;16.75;11.48;;;;;;;;;;5129901;27;20637;-70
2023/12/27 07:14:02;;;;;;;20.48;12.52;;;;;;;;;;5130296;27;20126;-70
2023/12/27 07:16:27;;;;;;;21.67;12.02;;;;;;;;;;5111232;27;20043;-71
2023/12/27 07:18:53;;;;;;;12.50;10.02;;;;;;;;;;5111734;27;20471;-71
2023/12/27 07:21:20;;;;;;;14.88;8.77;;;;;;;;;;5109885;27;20644;-71
2023/12/27 07:23:46;;;;;;;20.10;12.27;;;;;;;;;;5110920;27;20475;-71
2023/12/27 07:26:12;;;;;;;19.75;11.73;;;;;;;;;;5094661;27;20062;-71
2023/12/27 07:28:41;;;;;;;14.90;11.70;;;;;;;;;;5129502;27;20059;-70
2023/12/27 07:31:07;;;;;;;10.93;9.02;;;;;;;;;;5108545;27;20398;-70
2023/12/27 07:33:39;;;;;;;17.95;10.60;;;;;;;;;;5111271;27;20104;-71
2023/12/27 07:36:05;;;;;;;23.50;14.02;;;;;;;;;;5111643;27;20084;-70
2023/12/27 07:38:31;;;;;;;21.27;12.95;;;;;;;;;;5093425;27;20107;-70
2023/12/27 07:40:57;;;;;;;18.88;10.93;;;;;;;;;;5107877;27;20031;-70
2023/12/27 07:43:24;;;;;;;24.35;11.98;;;;;;;;;;5128289;27;20035;-70
2023/12/27 07:45:50;;;;;;;19.48;12.05;;;;;;;;;;5109685;27;20043;-71
2023/12/27 07:48:16;;;;;;;22.45;12.35;;;;;;;;;;5110791;27;20126;-70
2023/12/27 07:50:42;;;;;;;20.95;12.02;;;;;;;;;;5110326;27;20038;-71
2023/12/27 07:53:08;;;;;;;14.52;10.73;;;;;;;;;;5110714;27;20031;-71
2023/12/27 07:55:34;;;;;;;15.88;10.90;;;;;;;;;;5092210;28;20191;-70
2023/12/27 07:58:00;;;;;;;23.58;12.68;;;;;;;;;;5111202;27;20129;-71
2023/12/27 08:00:26;;;;;;;16.45;10.20;;;;;;;;;;5111635;27;20031;-70
2023/12/27 08:02:53;;;;;;;23.40;13.05;;;;;;;;;;5111294;27;20035;-70
2023/12/27 08:05:19;;;;;;;22.70;11.63;;;;;;;;;;5129744;27;20042;-70
2023/12/27 08:07:45;;;;;;;20.77;11.10;;;;;;;;;;5129479;27;20035;-70
2023/12/27 08:10:11;;;;;;;16.50;10.00;;;;;;;;;;5111286;27;20046;-70
2023/12/27 08:12:36;;;;;;;11.50;8.23;;;;;;;;;;5111242;27;20031;-71
2023/12/27 08:15:03;;;;;;;17.58;10.18;;;;;;;;;;5129691;27;20039;-71
2023/12/27 08:17:30;;;;;;;16.88;11.88;;;;;;;;;;5111453;27;20047;-70
2023/12/27 08:19:59;;;;;;;17.10;11.43;;;;;;;;;;5111311;27;20042;-71
2023/12/27 08:22:24;;;;;;;16.42;11.10;;;;;;;;;;5094324;28;20126;-70
2023/12/27 08:24:50;;;;;;;16.52;11.68;;;;;;;;;;5110765;27;20143;-69
2023/12/27 08:27:17;;;;;;;14.05;10.00;;;;;;;;;;5111382;27;20517;-70
2023/12/27 08:29:44;;;;;;;24.05;12.88;;;;;;;;;;5093781;27;20041;-70
2023/12/27 08:32:11;;;;;;;14.20;10.63;;;;;;;;;;5129522;27;20134;-70
2023/12/27 08:34:37;;;;;;;21.23;11.07;;;;;;;;;;5111250;28;20555;-70
2023/12/27 08:37:03;;;;;;;17.65;11.93;;;;;;;;;;5129939;27;20062;-72
2023/12/27 08:39:29;;;;;;;19.13;11.77;;;;;;;;;;5111208;27;20503;-71
2023/12/27 08:41:56;;;;;;;18.25;13.07;;;;;;;;;;5111248;28;20507;-70
2023/12/27 08:44:21;;;;;;;24.38;12.88;;;;;;;;;;5115446;27;20034;-70
2023/12/27 08:46:47;;;;;;;27.85;13.93;;;;;;;;;;5110731;27;20556;-71
2023/12/27 08:49:13;;;;;;;23.73;15.65;;;;;;;;;;5128523;27;20050;-70
2023/12/27 08:51:39;;;;;;;23.63;13.45;;;;;;;;;;5109002;27;20402;-70
2023/12/27 08:54:05;;;;;;;16.98;10.45;;;;;;;;;;5127831;27;20467;-70
2023/12/27 08:56:31;;;;;;;24.92;14.07;;;;;;;;;;5127354;27;20043;-70
2023/12/27 08:58:57;;;;;;;25.58;14.00;;;;;;;;;;5127962;27;20118;-71
2023/12/27 09:01:23;;;;;;;22.35;13.40;;;;;;;;;;5127873;27;20118;-70
2023/12/27 09:03:50;;;;;;;18.88;12.80;;;;;;;;;;5097763;28;20034;-70
2023/12/27 09:06:20;;;;;;;24.15;13.73;;;;;;;;;;5108092;27;20043;-71
2023/12/27 09:08:50;;;;;;;17.85;13.25;;;;;;;;;;5096672;27;20035;-70
2023/12/27 09:11:18;;;;;;;17.83;13.35;;;;;;;;;;5131551;27;20031;-71
2023/12/27 09:13:47;;;;;;;21.77;10.77;;;;;;;;;;5113309;27;20141;-70
2023/12/27 09:16:13;;;;;;;16.90;12.38;;;;;;;;;;5131036;27;20059;-71
2023/12/27 09:18:39;;;;;;;21.38;12.80;;;;;;;;;;5093480;27;20068;-70
2023/12/27 09:21:06;;;;;;;20.70;12.52;;;;;;;;;;5112638;27;20418;-71
2023/12/27 09:23:32;;;;;;;17.33;11.85;;;;;;;;;;5113267;27;20034;-71
2023/12/27 09:25:58;;;;;;;21.52;12.88;;;;;;;;;;5113141;27;20769;-72
2023/12/27 09:28:27;;;;;;;23.67;13.85;;;;;;;;;;5131731;27;20035;-71
2023/12/27 09:30:54;;;;;;;16.77;10.05;;;;;;;;;;5113488;27;20039;-69
2023/12/27 09:33:20;;;;;;;22.33;11.32;;;;;;;;;;5088806;28;20539;-70
2023/12/27 09:35:46;;;;;;;21.67;13.77;;;;;;;;;;5089835;28;20067;-71
2023/12/27 09:38:12;;;;;;;18.38;12.07;;;;;;;;;;5090483;28;20028;-71
2023/12/27 09:40:38;;;;;;;16.95;11.75;;;;;;;;;;5088512;28;20441;-71
2023/12/27 09:43:04;;;;;;;24.75;13.57;;;;;;;;;;5071807;28;20470;-71
2023/12/27 09:45:30;;;;;;;23.30;11.77;;;;;;;;;;5088520;28;20130;-71
2023/12/27 09:47:56;;;;;;;21.30;13.43;;;;;;;;;;5088820;28;20107;-71
2023/12/27 09:50:23;;;;;;;23.10;13.38;;;;;;;;;;5071675;28;20035;-72
2023/12/27 09:52:49;;;;;;;18.00;12.73;;;;;;;;;;5088438;28;20027;-71
2023/12/27 09:55:15;;;;;;;22.50;13.00;;;;;;;;;;5089533;28;20044;-70
2023/12/27 09:57:41;;;;;;;18.70;12.82;;;;;;;;;;5088267;28;20024;-71
2023/12/27 10:00:08;;;;;;;19.67;12.95;;;;;;;;;;5071618;28;20503;-72
2023/12/27 10:02:34;;;;;;;25.33;14.93;;;;;;;;;;5082905;28;20024;-70
2023/12/27 10:05:02;;;;;;;20.60;12.32;;;;;;;;;;5079322;28;20032;-71
2023/12/27 10:07:30;;;;;;;25.00;14.02;;;;;;;;;;5060672;28;20023;-71
2023/12/27 10:09:56;;;;;;;31.88;14.93;;;;;;;;;;5080892;28;20036;-71
2023/12/27 10:12:22;;;;;;;31.42;14.82;;;;;;;;;;5078191;28;20082;-71
2023/12/27 10:14:48;;;;;;;24.65;14.60;;;;;;;;;;5079919;28;20048;-70
2023/12/27 10:17:15;;;;;;;25.48;14.43;;;;;;;;;;5069380;28;20143;-70
2023/12/27 10:19:41;;;;;;;28.23;13.65;;;;;;;;;;5077286;28;20024;-70
2023/12/27 10:22:07;;;;;;;20.38;13.63;;;;;;;;;;5084286;28;20573;-70
2023/12/27 10:24:37;;;;;;;24.92;15.02;;;;;;;;;;5079994;28;20089;-69
2023/12/27 10:27:03;;;;;;;19.38;13.85;;;;;;;;;;5060972;28;20033;-71
2023/12/27 10:29:30;;;;;;;20.58;14.40;;;;;;;;;;5078281;28;20032;-71
2023/12/27 10:31:56;;;;;;;25.13;13.40;;;;;;;;;;5093368;27;20089;-70
2023/12/27 10:34:22;;;;;;;18.58;12.77;;;;;;;;;;5101319;27;20040;-70
2023/12/27 10:36:51;;;;;;;26.05;14.57;;;;;;;;;;5100330;27;20047;-71
2023/12/27 10:39:28;;;;;;;24.98;14.80;;;;;;;;;;5120864;27;20413;-71
2023/12/27 10:41:54;;;;;;;26.88;14.95;;;;;;;;;;5085236;27;20084;-71
2023/12/27 10:44:21;;;;;;;23.98;14.25;;;;;;;;;;5099534;27;20081;-71
2023/12/27 10:46:48;;;;;;;19.98;12.95;;;;;;;;;;5101875;27;20099;-70
2023/12/27 10:49:14;;;;;;;23.27;14.50;;;;;;;;;;5119609;27;20038;-70
2023/12/27 10:51:40;;;;;;;28.02;15.35;;;;;;;;;;5092218;28;20039;-70
2023/12/27 10:54:06;;;;;;;24.00;14.88;;;;;;;;;;5104907;27;20092;-70
2023/12/27 10:56:34;;;;;;;25.45;16.52;;;;;;;;;;5110028;27;20530;-70
2023/12/27 10:59:00;;;;;;;27.88;15.70;;;;;;;;;;5089037;28;20042;-70
2023/12/27 11:01:29;;;;;;;24.73;14.57;;;;;;;;;;5124153;27;20538;-70
2023/12/27 11:03:55;;;;;;;24.25;14.18;;;;;;;;;;5092882;27;20027;-70
2023/12/27 11:06:23;;;;;;;28.73;14.63;;;;;;;;;;5100223;27;20059;-70
2023/12/27 11:08:52;;;;;;;23.08;14.07;;;;;;;;;;5086570;27;20031;-70
2023/12/27 11:11:21;;;;;;;26.70;17.75;;;;;;;;;;5102472;27;20034;-69
2023/12/27 11:13:47;;;;;;;29.83;14.70;;;;;;;;;;5119186;27;20042;-70
2023/12/27 11:16:13;;;;;;;29.95;18.10;;;;;;;;;;5124455;27;20039;-71
2023/12/27 11:18:39;;;;;;;30.83;17.80;;;;;;;;;;5093329;27;20042;-71
2023/12/27 11:21:05;;;;;;;26.55;16.27;;;;;;;;;;5100630;27;20038;-70
2023/12/27 11:23:31;;;;;;;31.17;18.02;;;;;;;;;;5120108;27;20042;-70
2023/12/27 11:26:00;;;;;;;50.30;21.38;;;;;;;;;;5129892;27;20464;-70
2023/12/27 11:28:25;;;;;;;30.27;18.55;;;;;;;;;;5098877;27;20031;-71
2023/12/27 11:30:55;;;;;;;34.03;22.10;;;;;;;;;;5130044;27;20559;-71
2023/12/27 11:33:22;;;;;;;35.50;17.38;;;;;;;;;;5109504;27;20047;-71
2023/12/27 11:35:48;;;;;;;39.53;19.23;;;;;;;;;;5129278;27;20123;-70
2023/12/27 11:38:18;;;;;;;23.42;17.15;;;;;;;;;;5119772;27;20020;-71
2023/12/27 11:40:44;;;;;;;24.00;17.23;;;;;;;;;;5128713;27;20043;-70
2023/12/27 11:43:18;;;;;;;26.77;17.98;;;;;;;;;;5117166;27;20745;-70
2023/12/27 11:45:57;;;;;;;23.73;14.68;;;;;;;;;;5129535;27;20163;-71
2023/12/27 11:48:23;;;;;;;28.98;17.10;;;;;;;;;;5128490;27;20051;-71
2023/12/27 11:50:50;;;;;;;26.85;15.00;;;;;;;;;;5119078;27;20034;-70
2023/12/27 11:53:19;;;;;;;17.38;12.45;;;;;;;;;;5130044;27;20038;-69
2023/12/27 11:55:46;;;;;;;20.88;13.38;;;;;;;;;;5111650;27;20100;-70
2023/12/27 11:58:12;;;;;;;20.98;13.32;;;;;;;;;;5109024;27;20797;-69
2023/12/27 12:00:39;;;;;;;17.17;11.57;;;;;;;;;;5129910;27;20031;-69
2023/12/27 12:03:08;;;;;;;18.13;12.75;;;;;;;;;;5129428;27;20023;-71
2023/12/27 12:05:39;;;;;;;17.02;10.63;;;;;;;;;;5129461;27;20510;-70
2023/12/27 12:08:05;;;;;;;28.75;14.82;;;;;;;;;;5129563;28;20082;-69
2023/12/27 12:10:34;;;;;;;16.17;10.20;;;;;;;;;;5130846;28;20042;-70
2023/12/27 12:13:00;;;;;;;30.35;16.17;;;;;;;;;;5094192;28;20039;-69
2023/12/27 12:15:29;;;;;;;23.50;13.95;;;;;;;;;;5089706;28;20035;-70
2023/12/27 12:17:55;;;;;;;22.70;15.60;;;;;;;;;;5119830;28;20031;-71
2023/12/27 12:20:22;;;;;;;17.20;12.05;;;;;;;;;;5094385;28;20076;-70
2023/12/27 12:22:49;;;;;;;13.00;11.30;;;;;;;;;;5110866;28;20039;-74
2023/12/27 12:25:14;;;;;;;15.68;11.07;;;;;;;;;;5094580;28;20031;-70
2023/12/27 12:27:44;;;;;;;12.45;9.80;;;;;;;;;;5119894;27;20023;-70
2023/12/27 12:30:10;;;;;;;16.05;10.40;;;;;;;;;;5130118;27;20035;-70
2023/12/27 12:32:42;;;;;;;13.23;9.90;;;;;;;;;;5128007;27;20055;-72
2023/12/27 12:35:09;;;;;;;19.05;12.63;;;;;;;;;;5111010;28;20039;-70
2023/12/27 12:37:36;;;;;;;12.13;9.60;;;;;;;;;;5109490;27;20032;-70
2023/12/27 12:40:06;;;;;;;14.27;11.52;;;;;;;;;;5129380;27;20511;-71
2023/12/27 12:42:33;;;;;;;9.57;8.60;;;;;;;;;;5131790;27;20035;-70
2023/12/27 12:44:59;;;;;;;14.65;12.00;;;;;;;;;;5133186;27;20054;-71
2023/12/27 12:47:25;;;;;;;10.52;7.57;;;;;;;;;;5097851;27;20127;-71
2023/12/27 12:49:52;;;;;;;11.02;9.90;;;;;;;;;;5133180;27;20125;-70
2023/12/27 12:52:18;;;;;;;8.80;7.47;;;;;;;;;;5133275;27;20039;-70
2023/12/27 12:54:48;;;;;;;8.68;7.85;;;;;;;;;;5132934;27;20091;-71
2023/12/27 12:57:14;;;;;;;7.10;6.50;;;;;;;;;;5097985;27;20100;-69
2023/12/27 12:59:42;;;;;;;8.77;7.88;;;;;;;;;;5097580;27;20425;-71
2023/12/27 13:02:08;;;;;;;9.60;7.65;;;;;;;;;;5133114;27;20037;-70
2023/12/27 13:04:34;;;;;;;11.02;7.80;;;;;;;;;;5114896;27;20024;-70
2023/12/27 13:07:09;;;;;;;12.40;11.10;;;;;;;;;;5132660;27;20039;-70
2023/12/27 13:09:51;;;;;;;12.52;11.25;;;;;;;;;;5133440;27;20031;-70
2023/12/27 13:12:17;;;;;;;14.95;11.10;;;;;;;;;;5097819;27;20060;-71
2023/12/27 13:14:43;;;;;;;13.35;9.60;;;;;;;;;;5063973;27;20118;-71
2023/12/27 13:17:09;;;;;;;12.77;6.68;;;;;;;;;;5132915;27;20145;-70
2023/12/27 13:19:35;;;;;;;12.63;9.25;;;;;;;;;;5114585;27;20027;-70
2023/12/27 13:22:02;;;;;;;9.20;7.65;;;;;;;;;;5132552;27;20118;-71
2023/12/27 13:24:28;;;;;;;8.05;7.20;;;;;;;;;;5133171;27;20031;-70
2023/12/27 13:26:55;;;;;;;7.13;6.45;;;;;;;;;;5132558;27;20028;-70
2023/12/27 13:29:21;;;;;;;6.95;6.25;;;;;;;;;;5132916;27;20038;-70
2023/12/27 13:31:47;;;;;;;11.60;6.80;;;;;;;;;;5097669;27;20055;-71
2023/12/27 13:34:13;;;;;;;8.02;7.20;;;;;;;;;;5131823;27;20027;-70
2023/12/27 13:36:39;;;;;;;10.93;9.82;;;;;;;;;;5129513;27;20035;-70
2023/12/27 13:39:07;;;;;;;15.48;11.65;;;;;;;;;;5131777;27;20042;-69
2023/12/27 13:41:33;;;;;;;12.40;10.40;;;;;;;;;;5106262;28;20088;-70
2023/12/27 13:43:59;;;;;;;17.70;11.80;;;;;;;;;;5130583;27;20668;-71
2023/12/27 13:46:26;;;;;;;11.23;8.77;;;;;;;;;;5107650;28;20024;-70
2023/12/27 13:48:52;;;;;;;9.88;8.27;;;;;;;;;;5093884;27;20035;-70
2023/12/27 13:51:18;;;;;;;11.32;8.70;;;;;;;;;;5132010;27;20557;-70
2023/12/27 13:53:44;;;;;;;10.65;9.35;;;;;;;;;;5096675;27;20096;-70
2023/12/27 13:56:10;;;;;;;10.05;8.25;;;;;;;;;;5118769;27;20332;-70
2023/12/27 13:58:35;;;;;;;10.82;8.23;;;;;;;;;;5113206;27;20039;-71
2023/12/27 14:01:01;;;;;;;10.73;8.32;;;;;;;;;;5130545;27;20027;-69
2023/12/27 14:03:32;;;;;;;18.77;11.68;;;;;;;;;;5131240;27;20395;-70
2023/12/27 14:05:58;;;;;;;14.05;7.75;;;;;;;;;;5077297;27;20122;-72
2023/12/27 14:08:24;;;;;;;22.50;10.80;;;;;;;;;;5131489;27;20035;-70
2023/12/27 14:10:50;;;;;;;9.68;7.60;;;;;;;;;;5111536;27;20027;-70
2023/12/27 14:13:18;;;;;;;16.77;11.52;;;;;;;;;;5129435;27;20616;-70
2023/12/27 14:15:57;;;;;;;16.77;8.63;;;;;;;;;;5131338;27;20130;-69
2023/12/27 14:18:30;;;;;;;11.55;8.93;;;;;;;;;;5113313;27;20415;-69
2023/12/27 14:20:56;;;;;;;9.48;7.32;;;;;;;;;;5131431;27;20061;-69